Portada
METAR-TAF:

METAR-TAF

Aeroports :

Rantoul National Aviation Center Airport (Frank Elliott Field)

Rantoul, Illinois, Estats Units d'Amèrica

latitud: 40-17-37N, longitud: 088-08-33W, altitud: 225 m

Observació

L'informe es va fer fa 27 minuts, a les 11:15 UTC
Vent 4 kt del Nord-Est
Temperatura 16°C
Humitat 88%
Pressió 1019 hPa
Visibilitat: 16.1 km
Cel clar

METAR: KTIP 151115Z AUTO 05004KT 10SM CLR 16/14 A3009 RMK AO2 T01600135

Hora: 06:42 (11:42 UTC)


TAF: manca

Observacions i pronòstics meteorològics de més de 4000 aeroports (METAR i TAF).

Les estacions disponibles són els punts grocs i vermells al mapa.

Posi el ratolí al punt desitjat per veure el nom de l'estació.

Feu clic per veure les observacions i els pronòstics meteorològics.

Per canviar el mapa: feu clic els botons verds amb una creu de color negre per apropar; al botó verd amb un guió per allunyar la imatge; o en les fletxes verdes per a mapes adjacents.


METAR-TAF: